Ride Results

Rainbow Creek (20-02-2010)
Ride distance: 80.0 km

Outcomes - Rainbow Creek (20-02-2010)
Division No. of Entries Retired / DNE Completed Withdrawn Ineligible V/O Percentage Completed
HW 10 - 7 - - 3 70.00%
MW 15 - 12 - - 3 80.00%
LW 7 - 7 - - - 100.00%
JN 4 - 4 - - - 100.00%
Totals 36 - 30 - - 6 83.33%
Results - Rainbow Creek (20-02-2010)
No. Rider Horse Place Time Leg Speeds Total
Km/Hr
H/R bpm
Heavyweight
167 Bill Verspaandonk Tonki Dee Boo Frankly 1 (BC) 5:20:00 13.3, 17.1 15.00 42, 52, 51 (Avg:51)
58 Dianne Tobin Granjen Ruben James 2 5:23:00 15.7, 14.0 14.86 33, 40, 51 (Avg:45)
65 Carl Adamson Sundown Park Miss Jacob 3 5:38:00 15.3, 13.1 14.20 40, 39, 44 (Avg:41)
846 Peter Farrell Hillpete Gai Shalima 4 6:17:00 13.1, 12.3 12.73 26, 48, 43 (Avg:45)
18 Ken Bradley Twin Peaks Kenny Karaoke 5 6:30:00 12.9, 11.7 12.31 42, 48, 60 (Avg:54)
848 Michelle Slater Simeon Shulli 6 6:55:00 12.9, 10.4 11.57 41, 48, 55 (Avg:51)
76 Russell Robinson Jayay Alishah 7 7:45:00 10.4, 10.1 10.32 46, 38, 44 (Avg:41)
202 Allen Mackenzie Phoenix Park Epona Lame L2 0:00:00 12.9, 11.7 - 36, 42, 54 (Avg:48)
82 Jarrod Robinson Splitters Creek Vienna Lame L2 0:00:00 12.9, 10.8 - 56, 44, 48 (Avg:46)
847 Ian Tytler Whyneemah Abu Heart Rate L2 0:00:00 13.6, 13.2 - 38, 45, 65 (Avg:55)
Middleweight
844 Steve Blackhurst Quigley 1 (BC) 5:37:00 14.9, 13.5 14.24 34, 38, 48 (Avg:43)
190 Tracey Stoneman Rowallan Nara 1 5:37:00 14.9, 13.5 14.24 25, 40, 46 (Avg:43)
172 Michael Cadman A'landell Kwaint 3 5:37:30 13.7, 14.6 14.22 40, 45, 54 (Avg:49)
155 Janine Stembridge Storm 4 6:22:00 12.8, 12.3 12.57 36, 49, 56 (Avg:52)
845 Caroline Noble Shakeem 5 6:42:00 12.6, 11.3 11.94 36, 48, 52 (Avg:50)
13 Linda Tanian Magic Glenn Harpoon 6 6:47:00 11.9, 11.6 11.79 30, 40, 47 (Avg:43)
840 Kristie Taprell Magic Glenn The Phoenix 6 6:47:00 11.9, 11.6 11.79 47, 38, 45 (Avg:41)
826 Kerrin Turney Kismet 8 6:55:00 12.7, 10.5 11.57 41, 47, 52 (Avg:49)
843 Mark Peel Castlebar Sambucca 9 7:01:00 11.4, 11.3 11.40 42, 48, 48 (Avg:48)
126 Wendy Riha Magic Glenn Malkiya 9 7:01:00 11.4, 11.3 11.40 29, 44, 48 (Avg:46)
55 Richard Mason Tarrangower Aladdin 11 8:11:00 10.8, 8.9 9.78 37, 45, 44 (Avg:44)
44 Vanessa Smith Dunbraeton Narla 11 8:11:00 10.8, 8.9 9.78 36, 40, 36 (Avg:38)
842 Shelley Cowan Magic Glenn Delight Lame L2 0:00:00 11.4, 184.6 - 34, 40, 50 (Avg:45)
107 Jo Brock My Friend Jack Lame L1 0:00:00 10.8 - 40, 44 (Avg:44)
67 John Osboldstone Jackie Lame L1 0:00:00 15.7 - 37, 48 (Avg:48)
Lightweight
192 Tabitha Verspaandonk Musica Presto 1 (BC) 5:20:00 13.3, 17.1 15.00 7, 46, 49 (Avg:47)
183 Nicky Robinson Sterling Nakeeta 2 5:36:00 14.6, 13.9 14.29 41, 44, 52 (Avg:48)
11 Rohan Stanes Shuja Bint Melika 2 5:36:00 14.6, 13.9 14.29 21, 34, 44 (Avg:39)
91 Kim Noble Brodie 4 6:31:00 12.9, 11.7 12.28 37, 40, 43 (Avg:41)
841 Elodie LeLabourier Castlebar Kestrel 5 6:47:00 11.9, 11.6 11.79 24, 40, 46 (Avg:43)
8 Jane McLaughlin Syrahbia 6 6:51:00 11.9, 11.3 11.68 42, 48, 48 (Avg:48)
85 Belinda Kolek Lambruk Park Zariyan 7 7:33:00 10.4, 10.7 10.60 48, 42, 50 (Avg:46)
Junior
90 Samantha Noble Springridge Bungendore 1 (BC) 6:31:00 12.9, 11.7 12.28 30, 36, 42 (Avg:39)
34 Amanda Bengtsson Shakanda Samir 2 6:56:00 12.6, 10.5 11.54 37, 51, 52 (Avg:51)
194 Zeke Verspaandonk Duo Park Sobar 3 7:32:00 10.1, 11.1 10.62 38, 44, 47 (Avg:45)
195 Nikita Verspaandonk Rowallan Sunarda 3 7:32:00 10.1, 11.1 10.62 46, 48, 53 (Avg:50)